Time;durP1;ratioP1;P1;durP2;ratioP2;P2;SDS_P1;SDS_P2;PMS_P1;PMS_P2;Temp;Humidity;BMP_temperature;BMP_pressure;BME280_temperature;BME280_humidity;BME280_pressure;Samples;Min_cycle;Max_cycle;Signal;HPM_P1;HPM_P2
2023/05/01 00:01:31;;;;;;;7.13;4.07;;;7.50;63.00;;;;;;5053734;28;20233;-66
2023/05/01 00:04:00;;;;;;;7.63;4.55;;;7.40;63.50;;;;;;5053788;28;20288;-65
2023/05/01 00:06:26;;;;;;;7.88;5.05;;;7.40;63.90;;;;;;5054125;28;20209;-65
2023/05/01 00:08:53;;;;;;;7.22;5.05;;;7.40;64.50;;;;;;5054418;28;20434;-64
2023/05/01 00:11:20;;;;;;;6.32;4.38;;;7.40;64.90;;;;;;5054629;28;20221;-65
2023/05/01 00:13:47;;;;;;;12.02;5.05;;;7.40;65.30;;;;;;5054506;28;20208;-66
2023/05/01 00:16:15;;;;;;;8.73;4.30;;;7.30;65.90;;;;;;5054073;28;20225;-65
2023/05/01 00:18:42;;;;;;;7.35;4.55;;;7.20;66.40;;;;;;5053967;28;20197;-65
2023/05/01 00:21:10;;;;;;;11.68;5.15;;;7.20;67.80;;;;;;5053409;28;20237;-65
2023/05/01 00:23:37;;;;;;;8.00;4.50;;;7.20;67.70;;;;;;5052781;28;20197;-65
2023/05/01 00:26:04;;;;;;;7.40;4.38;;;7.20;68.40;;;;;;5053265;28;20209;-65
2023/05/01 00:28:31;;;;;;;5.57;4.75;;;7.10;68.70;;;;;;5057039;28;20204;-65
2023/05/01 00:30:58;;;;;;;6.68;4.45;;;7.10;69.30;;;;;;5056914;28;20229;-65
2023/05/01 00:33:24;;;;;;;8.40;5.00;;;7.10;69.80;;;;;;5057234;28;20212;-65
2023/05/01 00:35:51;;;;;;;6.78;4.70;;;7.10;70.50;;;;;;5057115;28;20535;-65
2023/05/01 00:38:19;;;;;;;8.77;4.57;;;7.00;71.00;;;;;;5057113;28;20577;-64
2023/05/01 00:40:47;;;;;;;9.27;5.38;;;7.00;71.70;;;;;;5056745;28;20257;-65
2023/05/01 00:43:14;;;;;;;9.30;4.35;;;7.00;72.20;;;;;;5057277;28;20215;-65
2023/05/01 00:45:44;;;;;;;11.57;4.97;;;6.90;72.80;;;;;;5057270;28;20331;-66
2023/05/01 00:48:11;;;;;;;8.10;4.95;;;6.90;73.50;;;;;;5057912;28;20232;-65
2023/05/01 00:50:38;;;;;;;8.88;5.45;;;6.90;74.30;;;;;;5057239;28;20228;-65
2023/05/01 00:53:05;;;;;;;7.40;5.10;;;6.90;74.80;;;;;;5057569;28;20205;-66
2023/05/01 00:55:34;;;;;;;12.10;6.18;;;6.90;75.50;;;;;;5064914;28;20209;-65
2023/05/01 00:58:01;;;;;;;9.95;5.03;;;6.80;76.00;;;;;;5065294;28;20225;-64
2023/05/01 01:00:28;;;;;;;10.13;5.40;;;6.80;76.70;;;;;;5064406;28;20295;-66
2023/05/01 01:02:55;;;;;;;6.40;5.10;;;6.80;77.40;;;;;;5062415;28;20202;-65
2023/05/01 01:05:26;;;;;;;6.82;4.85;;;6.70;78.10;;;;;;5063126;28;20216;-65
2023/05/01 01:08:09;;;;;;;9.10;5.40;;;6.70;78.40;;;;;;5062654;28;20182;-65
2023/05/01 01:10:45;;;;;;;7.65;5.18;;;6.70;79.10;;;;;;5066135;28;20222;-66
2023/05/01 01:13:18;;;;;;;8.63;6.70;;;6.70;79.60;;;;;;5062913;28;20208;-64
2023/05/01 01:15:50;;;;;;;9.90;5.60;;;6.70;80.40;;;;;;5063574;28;20710;-64
2023/05/01 01:18:24;;;;;;;7.90;5.13;;;6.70;81.10;;;;;;5062719;28;20182;-66
2023/05/01 01:21:00;;;;;;;9.30;5.72;;;6.60;81.80;;;;;;5056324;28;20241;-65
2023/05/01 01:23:59;;;;;;;7.60;4.57;;;6.60;82.10;;;;;;5056897;28;20264;-63
2023/05/01 01:26:52;;;;;;;7.15;4.63;;;6.60;82.60;;;;;;5060063;28;20231;-65
2023/05/01 01:29:44;;;;;;;7.35;4.90;;;6.60;83.30;;;;;;5060493;28;20193;-65
2023/05/01 01:32:43;;;;;;;13.18;6.03;;;6.60;84.00;;;;;;5057540;28;20225;-65
2023/05/01 01:35:18;;;;;;;6.57;4.90;;;6.60;84.20;;;;;;5059166;28;20197;-65
2023/05/01 01:37:51;;;;;;;9.65;5.30;;;6.50;84.50;;;;;;5060023;28;20215;-65
2023/05/01 01:40:24;;;;;;;6.40;5.28;;;6.50;85.10;;;;;;5059811;28;20631;-65
2023/05/01 01:42:55;;;;;;;9.88;5.47;;;6.50;85.60;;;;;;5060660;28;20197;-65
2023/05/01 01:45:23;;;;;;;9.02;5.40;;;6.50;86.60;;;;;;5060742;28;20190;-66
2023/05/01 01:47:52;;;;;;;9.35;5.25;;;6.40;86.60;;;;;;5061161;28;20252;-65
2023/05/01 01:50:22;;;;;;;8.82;5.10;;;6.40;87.20;;;;;;5058160;28;20222;-65
2023/05/01 01:52:51;;;;;;;9.88;5.57;;;6.40;87.50;;;;;;5057839;28;20262;-66
2023/05/01 01:55:23;;;;;;;9.45;5.28;;;6.40;87.90;;;;;;5058400;28;20213;-65
2023/05/01 01:57:51;;;;;;;11.93;4.95;;;6.40;88.20;;;;;;5056481;28;20553;-65
2023/05/01 02:00:20;;;;;;;5.53;5.03;;;6.40;88.50;;;;;;5055657;28;20305;-65
2023/05/01 02:02:48;;;;;;;6.82;5.10;;;6.40;88.60;;;;;;5055449;28;20201;-66
2023/05/01 02:05:16;;;;;;;8.60;5.90;;;6.40;89.00;;;;;;5055284;28;20205;-65
2023/05/01 02:07:46;;;;;;;11.32;6.30;;;6.30;89.30;;;;;;5055410;28;20205;-66
2023/05/01 02:10:14;;;;;;;6.70;4.78;;;6.30;89.70;;;;;;5055160;28;20234;-64
2023/05/01 02:12:44;;;;;;;8.93;7.88;;;6.30;90.00;;;;;;5055136;28;20206;-65
2023/05/01 02:15:11;;;;;;;12.13;4.93;;;6.30;90.10;;;;;;5055081;28;20212;-65
2023/05/01 02:17:39;;;;;;;10.93;5.95;;;6.20;90.40;;;;;;5054622;28;20597;-65
2023/05/01 02:20:09;;;;;;;10.85;4.82;;;6.30;90.60;;;;;;5054639;28;20207;-66
2023/05/01 02:22:36;;;;;;;11.82;5.50;;;6.20;90.80;;;;;;5054709;28;20195;-66
2023/05/01 02:25:07;;;;;;;7.53;5.15;;;6.20;91.00;;;;;;5054534;28;20202;-67
2023/05/01 02:27:37;;;;;;;7.40;5.43;;;6.20;91.20;;;;;;5054708;28;20182;-65
2023/05/01 02:30:05;;;;;;;12.15;5.43;;;6.20;91.30;;;;;;5054582;28;20612;-65
2023/05/01 02:32:32;;;;;;;9.23;5.75;;;6.10;91.40;;;;;;5058187;28;20301;-65
2023/05/01 02:35:00;;;;;;;11.88;5.60;;;6.10;91.50;;;;;;5058024;28;20671;-65
2023/05/01 02:37:29;;;;;;;6.63;5.30;;;6.10;91.80;;;;;;5054744;28;20226;-66
2023/05/01 02:39:56;;;;;;;8.93;5.18;;;6.00;92.00;;;;;;5054558;28;20213;-65
2023/05/01 02:42:26;;;;;;;6.43;5.20;;;6.00;92.30;;;;;;5054582;28;20205;-65
2023/05/01 02:44:58;;;;;;;7.38;5.05;;;6.00;92.50;;;;;;5054707;28;20198;-65
2023/05/01 02:47:26;;;;;;;10.93;5.55;;;6.00;92.60;;;;;;5059574;28;20178;-65
2023/05/01 02:49:54;;;;;;;9.35;6.13;;;6.00;92.60;;;;;;5054900;28;20212;-66
2023/05/01 02:52:22;;;;;;;7.78;4.95;;;5.90;92.80;;;;;;5054166;28;20205;-65
2023/05/01 02:54:50;;;;;;;8.27;4.90;;;5.90;92.90;;;;;;5054163;28;20201;-65
2023/05/01 02:57:19;;;;;;;8.45;5.03;;;5.90;93.00;;;;;;5053865;28;20707;-65
2023/05/01 02:59:47;;;;;;;7.28;5.60;;;5.90;93.40;;;;;;5054609;28;20208;-67
2023/05/01 03:02:14;;;;;;;13.57;5.70;;;5.80;93.40;;;;;;5054888;28;20225;-65
2023/05/01 03:04:41;;;;;;;8.02;4.78;;;5.90;93.70;;;;;;5053782;28;20259;-66
2023/05/01 03:07:08;;;;;;;6.90;5.45;;;5.80;93.80;;;;;;5053845;28;20201;-66
2023/05/01 03:09:35;;;;;;;8.93;5.10;;;5.80;93.80;;;;;;5053663;28;20676;-65
2023/05/01 03:12:02;;;;;;;9.05;6.10;;;5.80;94.00;;;;;;5055001;28;20217;-65
2023/05/01 03:14:29;;;;;;;5.85;5.25;;;5.80;94.10;;;;;;5056016;28;20202;-65
2023/05/01 03:16:57;;;;;;;9.60;5.45;;;5.80;94.20;;;;;;5056201;28;20228;-65
2023/05/01 03:19:24;;;;;;;9.00;6.05;;;5.70;94.40;;;;;;5057151;28;20202;-66
2023/05/01 03:21:51;;;;;;;7.97;5.45;;;5.70;94.60;;;;;;5057018;28;20226;-65
2023/05/01 03:24:17;;;;;;;10.55;6.15;;;5.70;94.70;;;;;;5056085;28;20202;-65
2023/05/01 03:26:44;;;;;;;8.23;5.30;;;5.70;95.00;;;;;;5057086;28;20579;-65
2023/05/01 03:29:12;;;;;;;7.53;5.40;;;5.60;95.10;;;;;;5055887;28;20259;-64
2023/05/01 03:31:38;;;;;;;10.82;6.18;;;5.60;95.30;;;;;;5054408;28;20267;-65
2023/05/01 03:34:07;;;;;;;9.65;6.18;;;5.60;95.40;;;;;;5053794;28;20212;-65
2023/05/01 03:36:34;;;;;;;15.30;7.60;;;5.50;95.60;;;;;;5053907;28;20251;-64
2023/05/01 03:39:00;;;;;;;7.63;5.90;;;5.50;96.00;;;;;;5053842;28;20252;-66
2023/05/01 03:41:27;;;;;;;10.55;5.53;;;5.50;96.20;;;;;;5053617;28;20225;-65
2023/05/01 03:43:54;;;;;;;6.72;5.15;;;5.50;96.40;;;;;;5053770;28;20206;-65
2023/05/01 03:46:21;;;;;;;8.70;5.50;;;5.50;96.50;;;;;;5054099;28;20292;-64
2023/05/01 03:48:47;;;;;;;8.07;5.53;;;5.50;96.50;;;;;;5053577;28;20205;-65
2023/05/01 03:51:16;;;;;;;6.53;5.82;;;5.50;96.60;;;;;;5053181;28;20229;-65
2023/05/01 03:53:42;;;;;;;6.93;5.53;;;5.50;96.70;;;;;;5053403;28;20300;-65
2023/05/01 03:56:09;;;;;;;9.23;6.50;;;5.50;96.90;;;;;;5053139;28;20226;-65
2023/05/01 03:58:36;;;;;;;9.35;6.07;;;5.50;97.00;;;;;;5053316;28;20225;-65
2023/05/01 04:01:03;;;;;;;8.82;5.70;;;5.40;97.10;;;;;;5052956;28;20221;-66
2023/05/01 04:03:30;;;;;;;9.60;6.00;;;5.50;97.40;;;;;;5053875;28;20224;-64
2023/05/01 04:05:57;;;;;;;11.23;6.13;;;5.50;97.50;;;;;;5052908;28;20632;-64
2023/05/01 04:11:38;;;;;;;10.32;6.60;;;5.60;97.40;;;;;;5091892;28;20962;-65
2023/05/01 04:14:04;;;;;;;10.25;6.82;;;5.60;97.40;;;;;;5090978;28;20299;-65
2023/05/01 04:16:31;;;;;;;10.05;7.10;;;5.70;97.30;;;;;;5090922;28;20576;-65
2023/05/01 04:18:58;;;;;;;8.75;5.60;;;5.70;97.30;;;;;;5092174;28;20689;-66
2023/05/01 04:21:25;;;;;;;10.30;6.38;;;5.70;97.30;;;;;;5092864;28;20681;-66
2023/05/01 04:23:52;;;;;;;10.15;6.28;;;5.80;97.40;;;;;;5092572;28;20595;-66
2023/05/01 04:26:19;;;;;;;11.38;6.38;;;5.90;97.30;;;;;;5094877;28;20265;-66
2023/05/01 04:28:47;;;;;;;8.50;6.30;;;6.00;97.20;;;;;;5092267;28;20200;-66
2023/05/01 04:31:14;;;;;;;8.75;6.15;;;6.10;97.20;;;;;;5090875;28;20227;-66
2023/05/01 04:33:40;;;;;;;10.82;6.80;;;6.20;97.20;;;;;;5091131;28;20289;-66
2023/05/01 04:36:07;;;;;;;10.65;6.75;;;6.40;96.90;;;;;;5090647;28;20207;-66
2023/05/01 04:38:35;;;;;;;12.65;6.32;;;6.50;96.70;;;;;;5090744;28;20208;-65
2023/05/01 04:41:02;;;;;;;8.05;5.90;;;6.70;96.40;;;;;;5090819;28;20277;-65
2023/05/01 04:43:29;;;;;;;10.50;6.97;;;6.80;96.10;;;;;;5091913;28;20197;-66
2023/05/01 04:45:57;;;;;;;7.35;5.57;;;7.00;95.70;;;;;;5092259;28;20208;-66
2023/05/01 04:48:24;;;;;;;7.15;5.65;;;7.10;95.10;;;;;;5091858;28;20200;-66
2023/05/01 04:50:51;;;;;;;6.72;5.10;;;7.10;94.80;;;;;;5091050;28;20232;-66
2023/05/01 04:53:18;;;;;;;8.30;5.93;;;7.20;94.20;;;;;;5091596;28;20203;-65
2023/05/01 04:55:44;;;;;;;7.90;5.35;;;7.20;93.70;;;;;;5093998;28;20577;-67
2023/05/01 04:58:11;;;;;;;8.18;5.88;;;7.20;93.40;;;;;;5093638;28;20208;-65
2023/05/01 05:00:38;;;;;;;11.05;6.30;;;7.10;93.30;;;;;;5093914;28;20223;-65
2023/05/01 05:03:06;;;;;;;10.05;6.15;;;7.10;93.30;;;;;;5095171;28;20200;-67
2023/05/01 05:05:34;;;;;;;9.45;5.72;;;7.20;93.60;;;;;;5094476;28;20248;-65
2023/05/01 05:08:01;;;;;;;8.95;5.90;;;7.40;93.30;;;;;;5094647;28;20204;-65
2023/05/01 05:10:28;;;;;;;12.30;5.95;;;7.50;92.70;;;;;;5097223;28;20228;-66
2023/05/01 05:12:55;;;;;;;9.00;6.13;;;7.70;92.30;;;;;;5101722;28;20197;-66
2023/05/01 05:15:22;;;;;;;7.57;5.18;;;7.90;91.80;;;;;;5098038;28;20607;-66
2023/05/01 05:17:49;;;;;;;10.52;5.85;;;8.20;91.40;;;;;;5090639;28;20196;-66
2023/05/01 05:20:17;;;;;;;8.82;5.18;;;8.40;90.20;;;;;;5091468;28;20617;-66
2023/05/01 05:22:44;;;;;;;10.20;6.10;;;8.60;87.90;;;;;;5088594;28;20205;-68
2023/05/01 05:25:11;;;;;;;12.00;5.90;;;8.70;86.60;;;;;;5089128;28;20213;-66
2023/05/01 05:27:38;;;;;;;9.30;5.70;;;8.70;84.50;;;;;;5088887;28;20447;-67
2023/05/01 05:30:06;;;;;;;9.50;6.22;;;8.80;83.60;;;;;;5090037;28;20475;-66
2023/05/01 05:32:33;;;;;;;9.13;6.60;;;8.70;82.60;;;;;;5088441;28;20209;-64
2023/05/01 05:35:00;;;;;;;9.85;6.28;;;8.70;81.50;;;;;;5077678;28;21002;-67
2023/05/01 05:37:28;;;;;;;8.07;6.40;;;8.70;81.10;;;;;;5076790;28;20201;-65
2023/05/01 05:39:55;;;;;;;6.95;5.60;;;8.60;80.80;;;;;;5076087;28;20450;-67
2023/05/01 05:42:22;;;;;;;10.23;5.73;;;8.70;80.90;;;;;;5076104;28;20296;-66
2023/05/01 05:44:49;;;;;;;8.50;5.33;;;8.80;80.80;;;;;;5075746;28;20443;-66
2023/05/01 05:47:16;;;;;;;9.57;5.80;;;8.90;80.80;;;;;;5075640;28;20440;-67
2023/05/01 05:49:42;;;;;;;6.67;5.97;;;9.10;80.20;;;;;;5075946;28;20454;-67
2023/05/01 05:52:09;;;;;;;12.40;6.10;;;9.20;79.20;;;;;;5081192;28;20463;-66
2023/05/01 05:54:37;;;;;;;7.60;5.90;;;9.40;78.30;;;;;;5076088;28;20450;-67
2023/05/01 05:57:04;;;;;;;8.43;5.70;;;9.40;76.00;;;;;;5075863;28;20447;-66
2023/05/01 05:59:31;;;;;;;7.30;5.77;;;9.40;74.90;;;;;;5075258;28;20999;-67
2023/05/01 06:01:58;;;;;;;8.03;5.17;;;9.40;74.00;;;;;;5075353;28;20513;-65
2023/05/01 06:04:24;;;;;;;9.10;6.00;;;9.40;73.60;;;;;;5075509;28;20531;-65
2023/05/01 06:06:51;;;;;;;10.20;6.03;;;9.40;73.10;;;;;;5075796;28;20459;-66
2023/05/01 06:09:18;;;;;;;7.30;5.53;;;9.50;72.10;;;;;;5075408;28;20444;-66
2023/05/01 06:11:47;;;;;;;8.70;5.60;;;9.60;71.00;;;;;;5075146;28;20553;-66
2023/05/01 06:14:14;;;;;;;8.23;5.60;;;9.70;70.10;;;;;;5075235;28;20500;-66
2023/05/01 06:16:40;;;;;;;5.80;5.07;;;9.90;69.30;;;;;;5075330;28;20458;-66
2023/05/01 06:19:09;;;;;;;9.47;5.90;;;10.00;67.10;;;;;;5075169;28;20450;-63
2023/05/01 06:21:36;;;;;;;8.27;5.13;;;10.10;66.40;;;;;;5075118;28;20459;-64
2023/05/01 06:24:02;;;;;;;6.87;5.20;;;10.20;65.50;;;;;;5075672;28;20446;-66
2023/05/01 06:26:30;;;;;;;7.03;5.17;;;10.30;64.50;;;;;;5077223;28;20447;-65
2023/05/01 06:28:58;;;;;;;6.23;4.60;;;10.40;63.80;;;;;;5075799;28;20801;-66
2023/05/01 06:31:25;;;;;;;8.10;4.90;;;10.60;62.90;;;;;;5075037;28;20483;-65
2023/05/01 06:33:52;;;;;;;6.10;4.53;;;10.70;62.40;;;;;;5073767;28;20550;-64
2023/05/01 06:36:19;;;;;;;7.90;4.50;;;10.90;61.60;;;;;;5074931;28;20447;-65
2023/05/01 06:38:48;;;;;;;13.07;5.70;;;11.10;60.60;;;;;;5074515;28;20454;-66
2023/05/01 06:41:14;;;;;;;4.90;4.13;;;11.20;59.70;;;;;;5074410;28;20879;-65
2023/05/01 06:43:41;;;;;;;7.33;5.10;;;11.30;59.10;;;;;;5074307;28;20968;-65
2023/05/01 06:46:09;;;;;;;5.83;4.03;;;11.40;58.50;;;;;;5074444;28;20432;-65
2023/05/01 06:48:36;;;;;;;4.40;4.00;;;11.60;58.20;;;;;;5074506;28;20443;-66
2023/05/01 06:51:03;;;;;;;10.03;5.13;;;11.70;57.70;;;;;;5074036;28;20486;-67
2023/05/01 06:53:30;;;;;;;5.80;5.07;;;11.80;57.20;;;;;;5074185;28;20446;-67
2023/05/01 06:55:56;;;;;;;7.57;5.13;;;12.10;56.90;;;;;;5073879;28;20473;-65
2023/05/01 06:58:23;;;;;;;7.87;4.90;;;12.20;56.30;;;;;;5074484;28;20443;-66
2023/05/01 07:00:50;;;;;;;6.07;4.63;;;12.40;55.90;;;;;;5073928;28;20955;-64
2023/05/01 07:03:18;;;;;;;6.17;3.93;;;12.50;55.50;;;;;;5075814;28;20454;-67
2023/05/01 07:05:45;;;;;;;6.40;4.30;;;12.70;55.10;;;;;;5074178;28;20448;-65
2023/05/01 07:08:13;;;;;;;9.90;5.20;;;12.80;54.70;;;;;;5077950;28;20439;-67
2023/05/01 07:10:39;;;;;;;8.00;4.80;;;12.90;54.30;;;;;;5083389;28;20527;-67
2023/05/01 07:13:06;;;;;;;8.27;4.90;;;13.00;53.70;;;;;;5080515;28;20486;-66
2023/05/01 07:15:33;;;;;;;6.53;5.50;;;13.10;53.40;;;;;;5074289;28;20452;-64
2023/05/01 07:18:01;;;;;;;7.10;4.83;;;13.20;52.90;;;;;;5075412;28;20466;-63
2023/05/01 07:20:29;;;;;;;8.63;4.83;;;13.40;52.50;;;;;;5074821;28;20527;-67
2023/05/01 07:22:56;;;;;;;8.00;4.90;;;13.40;52.10;;;;;;5077794;28;20447;-66
2023/05/01 07:25:23;;;;;;;7.43;4.20;;;13.60;51.80;;;;;;5079435;28;20446;-64
2023/05/01 07:27:50;;;;;;;8.77;4.53;;;13.70;51.40;;;;;;5074321;28;20487;-66
2023/05/01 07:30:17;;;;;;;7.27;3.97;;;13.80;51.10;;;;;;5077880;28;20468;-66
2023/05/01 07:32:44;;;;;;;6.37;3.53;;;13.90;50.80;;;;;;5078579;28;20448;-65
2023/05/01 07:35:10;;;;;;;6.03;4.10;;;14.10;50.40;;;;;;5075265;28;20815;-66
2023/05/01 07:37:39;;;;;;;6.70;3.70;;;14.20;50.00;;;;;;5078611;28;20451;-67
2023/05/01 07:40:06;;;;;;;5.63;4.10;;;14.40;49.60;;;;;;5076623;28;20530;-67
2023/05/01 07:42:33;;;;;;;5.80;3.97;;;14.50;49.20;;;;;;5076231;28;20454;-66
2023/05/01 07:45:00;;;;;;;4.43;3.30;;;14.60;48.80;;;;;;5075465;28;20443;-67
2023/05/01 07:47:27;;;;;;;6.63;4.20;;;14.70;48.60;;;;;;5073743;28;20467;-66
2023/05/01 07:49:54;;;;;;;6.07;3.40;;;14.70;48.30;;;;;;5072940;28;20447;-65
2023/05/01 07:52:20;;;;;;;6.67;2.80;;;14.80;48.20;;;;;;5073868;28;20479;-65
2023/05/01 07:54:51;;;;;;;5.13;3.60;;;14.90;48.10;;;;;;5074966;28;20443;-66
2023/05/01 07:57:17;;;;;;;6.00;2.83;;;15.00;47.80;;;;;;5076264;28;20431;-66
2023/05/01 07:59:44;;;;;;;5.00;3.13;;;15.10;47.40;;;;;;5077109;28;20449;-67
2023/05/01 08:02:12;;;;;;;5.03;2.80;;;15.20;47.00;;;;;;5075526;28;20465;-68
2023/05/01 08:04:40;;;;;;;4.80;3.20;;;15.20;46.70;;;;;;5079010;28;20803;-67
2023/05/01 08:07:07;;;;;;;5.07;3.37;;;15.30;46.40;;;;;;5077882;28;20565;-66
2023/05/01 08:09:33;;;;;;;6.07;4.17;;;15.40;46.10;;;;;;5080738;28;20451;-66
2023/05/01 08:12:02;;;;;;;7.00;3.20;;;15.50;46.00;;;;;;5076298;28;20483;-67
2023/05/01 08:14:29;;;;;;;5.37;3.40;;;15.60;45.80;;;;;;5076299;28;20545;-67
2023/05/01 08:16:56;;;;;;;7.03;4.17;;;15.80;45.70;;;;;;5075835;28;20447;-67
2023/05/01 08:19:23;;;;;;;6.03;3.20;;;16.00;45.70;;;;;;5079658;28;20447;-67
2023/05/01 08:21:50;;;;;;;4.80;3.07;;;16.10;45.40;;;;;;5083241;28;20463;-66
2023/05/01 08:24:16;;;;;;;9.60;3.27;;;16.20;45.80;;;;;;5082290;28;20534;-66
2023/05/01 08:26:43;;;;;;;5.60;3.90;;;16.30;45.20;;;;;;5084658;28;20467;-67
2023/05/01 08:29:12;;;;;;;5.80;3.47;;;16.40;45.10;;;;;;5082757;28;20507;-66
2023/05/01 08:31:38;;;;;;;5.27;3.60;;;16.60;45.20;;;;;;5081772;28;20483;-65
2023/05/01 08:34:05;;;;;;;7.20;3.83;;;16.70;44.90;;;;;;5080531;28;20447;-64
2023/05/01 08:36:32;;;;;;;4.40;3.70;;;16.90;45.40;;;;;;5082242;28;20447;-66
2023/05/01 08:38:59;;;;;;;5.73;4.40;;;17.00;44.60;;;;;;5077526;28;20929;-66
2023/05/01 08:41:27;;;;;;;4.40;3.50;;;17.00;44.30;;;;;;5074598;28;20470;-65
2023/05/01 08:43:57;;;;;;;5.40;3.70;;;17.00;44.20;;;;;;5074396;28;20824;-66
2023/05/01 08:46:36;;;;;;;7.83;4.17;;;17.10;44.20;;;;;;5075528;28;20473;-65
2023/05/01 08:49:06;;;;;;;4.60;4.10;;;17.20;44.00;;;;;;5074843;28;20435;-65
2023/05/01 08:51:34;;;;;;;5.73;3.93;;;17.30;43.90;;;;;;5075551;28;20483;-66
2023/05/01 08:54:03;;;;;;;4.43;3.50;;;17.30;43.70;;;;;;5078230;28;20501;-64
2023/05/01 08:56:32;;;;;;;4.73;3.70;;;17.30;43.40;;;;;;5082159;28;20451;-66
2023/05/01 08:59:02;;;;;;;6.33;4.47;;;17.30;43.40;;;;;;5087771;28;20514;-67
2023/05/01 09:01:31;;;;;;;3.47;3.03;;;17.40;43.40;;;;;;5081420;28;20471;-66
2023/05/01 09:03:58;;;;;;;4.53;3.73;;;17.60;43.30;;;;;;5082345;28;20973;-65
2023/05/01 09:06:27;;;;;;;8.40;3.50;;;17.80;43.00;;;;;;5084509;28;20455;-66
2023/05/01 09:08:53;;;;;;;4.53;3.67;;;17.90;42.70;;;;;;5084585;28;20458;-66
2023/05/01 09:11:21;;;;;;;5.50;4.20;;;18.00;42.50;;;;;;5081949;28;20483;-66
2023/05/01 09:13:48;;;;;;;4.80;3.77;;;18.10;42.40;;;;;;5081510;28;20443;-66
2023/05/01 09:16:15;;;;;;;5.13;4.37;;;18.40;42.40;;;;;;5083271;28;20457;-66
2023/05/01 09:18:43;;;;;;;6.90;4.40;;;18.40;42.10;;;;;;5086768;28;20515;-67
2023/05/01 09:21:11;;;;;;;5.70;3.40;;;18.50;42.10;;;;;;5100201;22;20490;-62
2023/05/01 09:23:39;;;;;;;5.40;4.20;;;18.60;42.10;;;;;;5037505;28;20445;-64
2023/05/01 09:26:06;;;;;;;4.80;4.07;;;18.60;42.00;;;;;;5036933;28;20453;-63
2023/05/01 09:28:41;;;;;;;6.07;4.23;;;18.60;41.90;;;;;;5036558;28;20449;-62
2023/05/01 09:31:21;;;;;;;10.27;4.07;;;18.70;42.00;;;;;;5036744;28;20480;-63
2023/05/01 09:33:54;;;;;;;5.40;3.97;;;18.80;42.00;;;;;;5036556;28;20835;-62
2023/05/01 09:36:21;;;;;;;5.07;3.80;;;19.00;41.70;;;;;;5036528;28;20445;-63
2023/05/01 09:38:48;;;;;;;4.00;3.60;;;19.20;41.60;;;;;;5036813;28;20814;-64
2023/05/01 09:41:15;;;;;;;4.30;3.83;;;19.30;41.40;;;;;;5036750;28;20465;-61
2023/05/01 09:43:48;;;;;;;5.03;3.80;;;19.40;41.20;;;;;;5036747;28;20441;-62
2023/05/01 09:46:15;;;;;;;6.47;3.90;;;19.40;40.80;;;;;;5037618;28;20432;-62
2023/05/01 09:48:54;;;;;;;9.27;5.13;;;19.40;40.90;;;;;;5036332;28;20440;-64
2023/05/01 09:51:23;;;;;;;6.00;3.67;;;19.50;41.00;;;;;;5036208;28;20534;-63
2023/05/01 09:53:51;;;;;;;5.93;3.60;;;19.50;40.80;;;;;;5038037;28;20461;-63
2023/05/01 09:56:18;;;;;;;4.97;3.90;;;19.60;40.80;;;;;;5037329;28;20460;-61
2023/05/01 09:58:45;;;;;;;7.50;4.73;;;19.60;40.80;;;;;;5036132;28;20449;-62
2023/05/01 10:01:12;;;;;;;5.67;3.70;;;19.60;40.90;;;;;;5035537;28;21009;-62
2023/05/01 10:03:39;;;;;;;6.73;3.87;;;19.60;40.70;;;;;;5036417;28;20449;-63
2023/05/01 10:06:08;;;;;;;5.03;3.63;;;19.70;40.60;;;;;;5036498;28;20449;-62
2023/05/01 10:08:46;;;;;;;8.53;4.60;;;19.60;40.50;;;;;;5036816;28;20454;-63
2023/05/01 10:11:12;;;;;;;4.00;3.00;;;19.60;40.50;;;;;;5036279;28;20465;-63
2023/05/01 10:13:39;;;;;;;4.00;3.60;;;19.50;40.50;;;;;;5036434;28;20464;-63
2023/05/01 10:16:09;;;;;;;5.03;3.30;;;19.50;40.20;;;;;;5035390;28;20919;-63
2023/05/01 10:18:36;;;;;;;7.30;4.07;;;19.20;40.40;;;;;;5036101;28;20452;-62
2023/05/01 10:21:04;;;;;;;3.53;3.10;;;19.20;40.80;;;;;;5037216;28;20472;-62
2023/05/01 10:23:33;;;;;;;9.00;3.90;;;19.30;40.80;;;;;;5036069;28;20453;-62
2023/05/01 10:26:02;;;;;;;4.00;3.60;;;19.30;40.80;;;;;;5036089;28;20446;-63
2023/05/01 10:28:29;;;;;;;5.50;3.60;;;19.30;40.90;;;;;;5036753;28;20536;-62
2023/05/01 10:30:58;;;;;;;5.70;3.50;;;19.30;41.00;;;;;;5035494;28;20456;-62
2023/05/01 10:33:26;;;;;;;4.23;3.43;;;19.50;41.20;;;;;;5035524;28;20483;-64
2023/05/01 10:35:58;;;;;;;4.33;3.93;;;19.90;40.90;;;;;;5035850;28;20438;-62
2023/05/01 10:38:31;;;;;;;3.80;3.50;;;20.10;40.30;;;;;;5036876;28;20479;-63
2023/05/01 10:40:59;;;;;;;6.20;3.90;;;20.10;40.00;;;;;;5035094;28;20474;-62
2023/05/01 10:43:27;;;;;;;6.40;3.97;;;20.00;39.80;;;;;;5035359;28;20443;-63
2023/05/01 10:46:15;;;;;;;8.33;3.97;;;20.00;40.00;;;;;;5035293;28;20540;-62
2023/05/01 10:48:58;;;;;;;6.87;3.47;;;20.00;39.90;;;;;;5035377;28;20554;-63
2023/05/01 10:51:27;;;;;;;5.93;3.50;;;20.00;39.70;;;;;;5035787;28;20847;-63
2023/05/01 10:54:25;;;;;;;4.23;3.77;;;20.10;39.70;;;;;;5035976;28;20678;-64
2023/05/01 10:56:55;;;;;;;7.23;3.40;;;20.30;39.50;;;;;;4975276;28;20528;-62
2023/05/01 10:59:21;;;;;;;5.50;3.33;;;20.50;39.30;;;;;;5022811;28;20521;-63
2023/05/01 11:01:50;;;;;;;3.27;2.93;;;20.60;39.20;;;;;;5035409;28;20457;-63
2023/05/01 11:04:49;;;;;;;5.27;2.87;;;20.60;38.80;;;;;;5035837;28;20441;-63
2023/05/01 11:07:18;;;;;;;4.47;3.10;;;20.40;38.70;;;;;;5035861;28;20421;-62
2023/05/01 11:09:46;;;;;;;4.43;3.23;;;20.30;38.80;;;;;;5036014;28;20456;-63
2023/05/01 11:12:15;;;;;;;6.43;3.43;;;20.30;38.80;;;;;;5035354;28;20481;-63
2023/05/01 11:15:06;;;;;;;5.13;3.47;;;20.50;38.70;;;;;;5036241;28;20454;-62
2023/05/01 11:17:46;;;;;;;6.87;3.70;;;20.50;38.70;;;;;;5034591;28;20445;-62
2023/05/01 11:20:13;;;;;;;3.80;3.30;;;20.70;38.70;;;;;;5033828;28;20454;-62
2023/05/01 11:22:46;;;;;;;3.80;3.50;;;20.90;38.60;;;;;;5034396;28;20442;-63
2023/05/01 11:25:20;;;;;;;3.20;2.90;;;21.20;38.30;;;;;;5034238;28;20431;-63
2023/05/01 11:27:51;;;;;;;4.80;3.23;;;21.40;38.10;;;;;;5034248;28;20446;-62
2023/05/01 11:30:18;;;;;;;6.53;3.30;;;21.30;37.90;;;;;;5034238;28;20440;-63
2023/05/01 11:32:46;;;;;;;4.43;4.03;;;21.30;38.20;;;;;;5033922;28;20480;-62
2023/05/01 11:35:17;;;;;;;4.43;3.80;;;21.60;38.40;;;;;;5034004;28;20451;-63
2023/05/01 11:37:45;;;;;;;4.00;3.23;;;21.90;38.20;;;;;;5034090;28;20512;-63
2023/05/01 11:40:23;;;;;;;7.10;3.87;;;22.10;37.90;;;;;;5033895;28;20965;-61
2023/05/01 11:43:00;;;;;;;6.20;3.60;;;22.20;37.80;;;;;;5034063;28;20470;-61
2023/05/01 11:45:27;;;;;;;5.20;3.80;;;22.20;37.10;;;;;;5033954;28;20446;-61
2023/05/01 11:47:54;;;;;;;3.80;2.50;;;22.10;37.00;;;;;;5033870;28;20958;-62
2023/05/01 11:50:21;;;;;;;4.67;2.93;;;22.20;36.90;;;;;;5033584;28;20456;-63
2023/05/01 11:52:52;;;;;;;5.40;2.53;;;22.70;36.50;;;;;;5033450;28;20488;-64
2023/05/01 11:55:19;;;;;;;3.93;2.50;;;23.30;36.00;;;;;;5033451;28;20436;-62
2023/05/01 11:57:50;;;;;;;3.07;2.40;;;23.80;35.20;;;;;;5033871;28;20441;-64
2023/05/01 12:00:27;;;;;;;5.23;2.73;;;24.10;34.60;;;;;;5033984;28;20448;-63
2023/05/01 12:03:01;;;;;;;5.90;3.43;;;24.20;34.10;;;;;;5033634;28;20433;-63
2023/05/01 12:05:30;;;;;;;3.00;2.37;;;24.10;34.20;;;;;;5034068;28;20540;-62
2023/05/01 12:08:10;;;;;;;4.43;2.20;;;24.00;34.20;;;;;;5034310;28;20440;-64
2023/05/01 12:10:38;;;;;;;3.13;2.50;;;23.80;34.90;;;;;;5033637;28;20484;-62
2023/05/01 12:13:06;;;;;;;4.40;2.80;;;23.50;34.40;;;;;;5033492;28;20483;-62
2023/05/01 12:15:36;;;;;;;3.43;2.77;;;23.30;34.60;;;;;;5033596;28;20926;-63
2023/05/01 12:18:04;;;;;;;4.03;2.03;;;23.20;34.90;;;;;;5034369;28;20438;-62
2023/05/01 12:20:38;;;;;;;3.40;2.20;;;23.20;34.90;;;;;;5034057;28;20473;-63
2023/05/01 12:23:05;;;;;;;3.80;2.13;;;23.50;34.90;;;;;;5033609;28;20451;-63
2023/05/01 12:25:33;;;;;;;3.00;2.73;;;23.80;34.60;;;;;;5033533;28;21022;-62
2023/05/01 12:28:03;;;;;;;4.23;2.30;;;24.10;34.30;;;;;;5033683;28;20495;-62
2023/05/01 12:30:30;;;;;;;4.47;2.97;;;24.10;34.30;;;;;;5033337;28;20467;-63
2023/05/01 12:32:59;;;;;;;3.30;2.23;;;24.00;34.30;;;;;;5036808;28;20484;-62
2023/05/01 12:35:30;;;;;;;2.73;2.40;;;23.60;34.40;;;;;;5037515;28;20480;-63
2023/05/01 12:37:58;;;;;;;3.13;2.33;;;23.20;34.70;;;;;;5037155;28;20884;-63
2023/05/01 12:40:25;;;;;;;5.20;2.67;;;22.90;35.10;;;;;;5036999;28;20458;-62
2023/05/01 12:42:57;;;;;;;2.90;2.03;;;22.70;35.50;;;;;;5036965;28;20444;-63
2023/05/01 12:45:25;;;;;;;2.00;1.70;;;22.60;35.70;;;;;;5037563;28;20468;-62
2023/05/01 12:47:52;;;;;;;3.70;2.00;;;22.50;36.10;;;;;;5037322;28;20534;-63
2023/05/01 12:50:20;;;;;;;2.40;1.70;;;22.50;35.50;;;;;;5037587;28;20440;-64
2023/05/01 12:52:49;;;;;;;3.17;2.20;;;22.40;35.40;;;;;;5037108;28;20495;-64
2023/05/01 12:55:16;;;;;;;3.20;2.20;;;22.50;36.00;;;;;;5037203;28;20448;-63
2023/05/01 12:57:53;;;;;;;2.00;1.80;;;22.60;35.30;;;;;;5036492;28;20463;-65
2023/05/01 13:00:21;;;;;;;2.93;2.27;;;22.50;35.30;;;;;;5037016;28;20448;-62
2023/05/01 13:02:48;;;;;;;2.77;2.57;;;22.40;35.50;;;;;;5036841;28;20452;-62